首页
METAR-TAF:

METAR-TAF

机场 :

呼和浩特白塔国际机场

呼和浩特, 中华人民共和国

纬度: 40-49N, 经度: 111-41E, 海拔: 1065米

当前天气观测

该预报发布于17分钟前的05:00 UTC
风速6节,风向西,在西转西南西北之间变化
温度 8°C
湿度 42%
气压 1019 hPa
能見度: 5000
少量云层高于4000英尺

METAR: ZBHH 140500Z 28003MPS 250V310 5000 HZ FEW040 08/M04 Q1019 NOSIG

时间: 13:17 (05:17 UTC)

预报

该预报发布于10小时和16分钟前的19:01 UTC
预报有效从14日的 00点(UTC)到 14日的 24点(UTC)
风速8节,风向北转西北
能見度: 6000
短暂存在
从 14日的 08点(UTC)到 14日的 12点(UTC)
能見度: 2500
小雨

TAF: ZBHH 131901Z 1400/1424 33004MPS 6000 NSC TX06/1407Z TNM06/22Z TEMPO 1408/1412 2500 -RA

超过4000个机场的气象观测和天气预报(METAR&TAF报告)。

可查询的气象台以黄色和红色小点在地图上表示。

将鼠标移到小点上方,可查看气象台名称。

然后点击查看天气观测和预报。

如需切换地图:点击带黑十字的绿色按钮放大地图;点击带横线的绿色按钮缩小地图;或者点击绿色箭头查看邻近地区的地图。


METAR-TAF: